createdAt,value
2022-12-03T00:01:48.194Z,8.32
2022-12-03T00:04:14.935Z,8.35
2022-12-03T00:06:41.774Z,8.37
2022-12-03T00:09:08.514Z,8.41
2022-12-03T00:11:35.362Z,8.28
2022-12-03T00:14:02.113Z,8.27
2022-12-03T00:16:29.058Z,8.05
2022-12-03T00:18:55.890Z,8.22
2022-12-03T00:21:24.609Z,8.27
2022-12-03T00:23:51.785Z,8.21
2022-12-03T00:26:18.613Z,8.23
2022-12-03T00:28:45.358Z,8.19
2022-12-03T00:31:13.486Z,8.20
2022-12-03T00:33:40.249Z,8.19
2022-12-03T00:36:07.483Z,8.20
2022-12-03T00:38:34.320Z,8.15
2022-12-03T00:41:01.152Z,8.13
2022-12-03T00:43:27.920Z,8.20
2022-12-03T00:45:54.776Z,8.25
2022-12-03T00:48:21.572Z,8.18
2022-12-03T00:50:48.419Z,8.15
2022-12-03T00:53:15.148Z,8.14
2022-12-03T00:55:41.935Z,8.16
2022-12-03T00:58:09.532Z,8.23
2022-12-03T01:00:36.858Z,8.19
2022-12-03T01:03:04.497Z,8.24
2022-12-03T01:05:31.393Z,8.27
2022-12-03T01:07:58.145Z,8.33
2022-12-03T01:10:24.975Z,8.37
2022-12-03T01:12:51.730Z,8.40
2022-12-03T01:15:18.580Z,8.55
2022-12-03T01:17:45.328Z,8.64
2022-12-03T01:20:12.688Z,8.67
2022-12-03T01:22:39.529Z,8.72
2022-12-03T01:25:06.787Z,8.71
2022-12-03T01:27:33.505Z,8.69
2022-12-03T01:30:00.292Z,8.89
2022-12-03T01:32:27.095Z,8.86
2022-12-03T01:34:56.050Z,8.83
2022-12-03T01:37:25.272Z,8.76
2022-12-03T01:39:52.184Z,8.74
2022-12-03T01:42:23.633Z,8.70
2022-12-03T01:44:56.122Z,8.61
2022-12-03T01:47:33.172Z,8.56
2022-12-03T01:50:04.817Z,8.59
2022-12-03T01:52:37.052Z,8.60
2022-12-03T01:55:08.044Z,8.62
2022-12-03T01:57:46.025Z,8.55
2022-12-03T02:00:15.346Z,8.45
2022-12-03T02:02:42.570Z,8.45
2022-12-03T02:05:18.123Z,8.54
2022-12-03T02:07:45.185Z,8.55
2022-12-03T02:10:14.137Z,8.57
2022-12-03T02:12:47.734Z,8.62
2022-12-03T02:15:15.050Z,8.64
2022-12-03T02:17:43.035Z,8.66
2022-12-03T02:20:11.646Z,8.62
2022-12-03T02:22:47.967Z,8.58
2022-12-03T02:25:18.303Z,8.56
2022-12-03T02:27:45.777Z,8.54
2022-12-03T02:30:17.334Z,8.60
2022-12-03T02:32:44.370Z,8.59
2022-12-03T02:35:20.540Z,8.58
2022-12-03T02:37:50.893Z,8.63
2022-12-03T02:40:24.848Z,8.63
2022-12-03T02:42:55.529Z,8.68
2022-12-03T02:45:36.096Z,8.76
2022-12-03T02:48:08.667Z,8.78
2022-12-03T02:50:42.486Z,8.76
2022-12-03T02:53:17.393Z,8.92
2022-12-03T02:55:44.936Z,8.77
2022-12-03T02:58:12.213Z,8.67
2022-12-03T03:00:39.860Z,8.51
2022-12-03T03:03:08.612Z,8.49
2022-12-03T03:05:38.581Z,8.47
2022-12-03T03:08:08.132Z,8.41
2022-12-03T03:10:37.321Z,8.47
2022-12-03T03:13:08.957Z,8.51
2022-12-03T03:15:37.325Z,8.45
2022-12-03T03:18:05.623Z,8.44
2022-12-03T03:20:32.469Z,8.42
2022-12-03T03:23:12.899Z,8.35
2022-12-03T03:25:42.470Z,8.38
2022-12-03T03:28:09.922Z,8.43
2022-12-03T03:30:52.185Z,8.45
2022-12-03T03:33:19.182Z,8.47
2022-12-03T03:35:48.116Z,8.50
2022-12-03T03:38:18.886Z,8.50
2022-12-03T03:40:48.165Z,8.52
2022-12-03T03:43:15.028Z,8.59
2022-12-03T03:45:42.775Z,8.63
2022-12-03T03:48:10.489Z,8.61
2022-12-03T03:50:37.611Z,8.57
2022-12-03T03:53:05.812Z,8.65
2022-12-03T03:55:33.754Z,8.60
2022-12-03T03:58:01.028Z,8.64
2022-12-03T04:00:27.995Z,8.72
2022-12-03T04:02:54.798Z,8.76
2022-12-03T04:05:23.846Z,8.75
2022-12-03T04:07:51.086Z,8.73
2022-12-03T04:10:36.343Z,8.64
2022-12-03T04:13:03.904Z,8.62
2022-12-03T04:15:30.920Z,8.72
2022-12-03T04:18:17.669Z,8.75
2022-12-03T04:20:44.552Z,8.72
2022-12-03T04:23:11.350Z,8.72
2022-12-03T04:25:56.867Z,8.76
2022-12-03T04:28:42.391Z,8.63
2022-12-03T04:31:27.739Z,8.64
2022-12-03T04:34:13.260Z,8.69
2022-12-03T04:36:40.078Z,8.76
2022-12-03T04:39:06.826Z,8.77
2022-12-03T04:41:33.651Z,8.78
2022-12-03T04:44:18.984Z,8.80
2022-12-03T04:46:45.779Z,8.81
2022-12-03T04:49:12.775Z,8.82
2022-12-03T04:51:39.637Z,8.86
2022-12-03T04:54:06.446Z,8.84
2022-12-03T04:56:33.321Z,8.82
2022-12-03T04:59:00.078Z,8.81
2022-12-03T05:01:27.047Z,8.78
2022-12-03T05:03:53.756Z,8.80
2022-12-03T05:06:20.803Z,8.89
2022-12-03T05:08:47.643Z,8.81
2022-12-03T05:11:14.698Z,8.83
2022-12-03T05:13:43.093Z,8.67
2022-12-03T05:16:10.334Z,8.61
2022-12-03T05:18:37.112Z,8.58
2022-12-03T05:21:04.090Z,8.53
2022-12-03T05:23:32.158Z,8.58
2022-12-03T05:25:58.954Z,8.68
2022-12-03T05:28:25.757Z,8.72
2022-12-03T05:30:52.876Z,8.70
2022-12-03T05:33:20.509Z,8.64
2022-12-03T05:35:47.703Z,8.58
2022-12-03T05:38:14.388Z,8.43
2022-12-03T05:40:41.276Z,8.40
2022-12-03T05:43:08.360Z,8.43
2022-12-03T05:45:37.408Z,8.46
2022-12-03T05:48:06.555Z,8.38
2022-12-03T05:50:35.514Z,8.35
2022-12-03T05:53:15.275Z,8.32
2022-12-03T05:55:42.221Z,8.37
2022-12-03T05:58:09.589Z,8.38
2022-12-03T06:00:42.449Z,8.42
2022-12-03T06:03:10.746Z,8.47
2022-12-03T06:05:37.855Z,8.47
2022-12-03T06:08:05.078Z,8.44
2022-12-03T06:10:32.623Z,8.48
2022-12-03T06:12:59.561Z,8.48
2022-12-03T06:15:26.309Z,8.54
2022-12-03T06:17:53.684Z,8.52
2022-12-03T06:20:20.811Z,8.57
2022-12-03T06:22:48.224Z,8.61
2022-12-03T06:25:15.678Z,8.68
2022-12-03T06:27:42.643Z,8.70
2022-12-03T06:30:12.812Z,8.77
2022-12-03T06:32:39.568Z,8.75
2022-12-03T06:35:06.783Z,8.72
2022-12-03T06:37:33.652Z,8.76
2022-12-03T06:40:00.384Z,8.67
2022-12-03T06:42:27.377Z,8.63
2022-12-03T06:44:54.314Z,8.66
2022-12-03T06:47:21.402Z,8.61
2022-12-03T06:49:48.134Z,8.64
2022-12-03T06:52:15.036Z,8.64
2022-12-03T06:54:41.961Z,8.67
2022-12-03T06:57:08.738Z,8.68
2022-12-03T06:59:37.607Z,8.74
2022-12-03T07:02:05.387Z,8.82
2022-12-03T07:04:32.153Z,8.82
2022-12-03T07:06:58.962Z,8.87
2022-12-03T07:09:25.770Z,9.00
2022-12-03T07:11:52.676Z,9.11
2022-12-03T07:14:20.959Z,9.22
2022-12-03T07:16:47.862Z,9.23
2022-12-03T07:19:14.733Z,9.21
2022-12-03T07:21:41.831Z,9.19
2022-12-03T07:24:09.149Z,9.17
2022-12-03T07:26:36.242Z,9.18
2022-12-03T07:29:03.503Z,9.30
2022-12-03T07:31:30.660Z,9.33
2022-12-03T07:33:57.453Z,9.23
2022-12-03T07:36:24.232Z,9.20
2022-12-03T07:38:51.015Z,9.17
2022-12-03T07:41:17.840Z,9.17
2022-12-03T07:43:45.307Z,9.20
2022-12-03T07:46:12.260Z,9.22
2022-12-03T07:48:39.098Z,9.20
2022-12-03T07:51:06.056Z,9.17
2022-12-03T07:53:33.009Z,9.19
2022-12-03T07:55:59.881Z,9.19
2022-12-03T07:58:26.606Z,9.18
2022-12-03T08:00:53.726Z,9.20
2022-12-03T08:03:20.501Z,9.20
2022-12-03T08:05:47.404Z,9.27
2022-12-03T08:08:14.377Z,9.25
2022-12-03T08:10:41.226Z,9.27
2022-12-03T08:13:13.852Z,9.25
2022-12-03T08:15:40.765Z,9.27
2022-12-03T08:18:19.219Z,9.23
2022-12-03T08:20:48.450Z,9.24
2022-12-03T08:23:23.402Z,9.33
2022-12-03T08:25:51.931Z,9.30
2022-12-03T08:28:21.328Z,9.33
2022-12-03T08:31:05.864Z,9.33
2022-12-03T08:33:35.597Z,9.29
2022-12-03T08:36:29.271Z,9.27
2022-12-03T08:38:59.609Z,9.31
2022-12-03T08:41:45.299Z,9.27
2022-12-03T08:44:29.121Z,9.27
2022-12-03T08:47:09.564Z,9.27
2022-12-03T08:49:37.522Z,9.28
2022-12-03T08:52:15.075Z,9.34
2022-12-03T08:54:43.246Z,9.35
2022-12-03T08:57:36.150Z,9.39
2022-12-03T09:00:21.654Z,9.45
2022-12-03T09:02:51.627Z,9.48
2022-12-03T09:05:30.912Z,9.60
2022-12-03T09:07:59.423Z,9.78
2022-12-03T09:10:26.285Z,9.68
2022-12-03T09:12:53.240Z,9.65
2022-12-03T09:15:20.167Z,9.68
2022-12-03T09:17:49.905Z,9.61
2022-12-03T09:20:16.905Z,9.67
2022-12-03T09:22:43.727Z,9.49
2022-12-03T09:25:10.602Z,9.45
2022-12-03T09:27:37.355Z,9.45
2022-12-03T09:30:05.455Z,9.45
2022-12-03T09:32:32.368Z,9.42
2022-12-03T09:34:59.251Z,9.52
2022-12-03T09:37:26.042Z,9.62
2022-12-03T09:39:52.875Z,9.77
2022-12-03T09:42:19.621Z,10.01
2022-12-03T09:44:46.556Z,10.05
2022-12-03T09:47:13.510Z,10.30
2022-12-03T09:49:40.756Z,10.32
2022-12-03T09:52:07.955Z,10.25
2022-12-03T09:54:35.416Z,10.18
2022-12-03T09:57:04.278Z,10.18
2022-12-03T09:59:33.536Z,10.15
2022-12-03T10:02:01.584Z,10.16
2022-12-03T10:04:29.821Z,10.18
2022-12-03T10:06:58.337Z,10.34
2022-12-03T10:09:28.276Z,10.39
2022-12-03T10:11:57.442Z,10.62
2022-12-03T10:14:24.533Z,10.65
2022-12-03T10:16:51.604Z,10.60
2022-12-03T10:19:39.696Z,10.64
2022-12-03T10:22:06.585Z,10.56
2022-12-03T10:24:35.487Z,10.52
2022-12-03T10:27:05.282Z,10.60
2022-12-03T10:29:34.957Z,10.60
2022-12-03T10:32:10.451Z,10.58
2022-12-03T10:34:42.055Z,10.57
2022-12-03T10:37:17.991Z,10.57
2022-12-03T10:40:21.372Z,10.73
2022-12-03T10:42:48.140Z,10.81
2022-12-03T10:45:20.592Z,10.83
2022-12-03T10:48:21.428Z,10.87
2022-12-03T10:50:59.489Z,10.94
2022-12-03T10:53:29.905Z,11.08
2022-12-03T10:55:59.773Z,11.07
2022-12-03T10:58:34.134Z,11.08
2022-12-03T11:01:06.399Z,11.10
2022-12-03T11:03:37.053Z,11.17
2022-12-03T11:06:04.071Z,11.20
2022-12-03T11:08:35.797Z,11.28
2022-12-03T11:11:04.820Z,11.13
2022-12-03T11:13:35.838Z,11.01
2022-12-03T11:16:05.672Z,10.97
2022-12-03T11:18:38.643Z,10.91
2022-12-03T11:21:14.518Z,10.89
2022-12-03T11:23:44.300Z,10.83
2022-12-03T11:26:37.283Z,10.88
2022-12-03T11:29:13.131Z,10.88
2022-12-03T11:31:47.592Z,10.93
2022-12-03T11:34:20.623Z,10.96
2022-12-03T11:37:12.446Z,10.99
2022-12-03T11:39:47.999Z,11.08
2022-12-03T11:42:26.754Z,11.10
2022-12-03T11:45:02.747Z,11.25
2022-12-03T11:47:32.966Z,11.21
2022-12-03T11:50:00.826Z,11.15
2022-12-03T11:52:38.579Z,11.07
2022-12-03T11:55:17.828Z,11.11
2022-12-03T11:57:45.330Z,11.07
2022-12-03T12:00:21.868Z,11.07
2022-12-03T12:02:50.301Z,11.08
2022-12-03T12:05:22.301Z,11.06
2022-12-03T12:07:50.252Z,11.06
2022-12-03T12:10:46.816Z,11.08
2022-12-03T12:13:31.825Z,11.12
2022-12-03T12:16:00.402Z,11.12
2022-12-03T12:18:42.238Z,11.15
2022-12-03T12:21:43.115Z,11.16
2022-12-03T12:24:41.274Z,11.17
2022-12-03T12:27:10.712Z,11.22
2022-12-03T12:29:39.352Z,11.31
2022-12-03T12:32:09.286Z,11.39
2022-12-03T12:34:44.726Z,11.37
2022-12-03T12:37:21.685Z,11.34
2022-12-03T12:39:54.478Z,11.26
2022-12-03T12:42:29.414Z,11.29
2022-12-03T12:45:14.460Z,11.28
2022-12-03T12:48:15.446Z,11.37
2022-12-03T12:50:46.187Z,11.38
2022-12-03T12:53:25.083Z,11.41
2022-12-03T12:56:06.712Z,11.39
2022-12-03T12:58:34.445Z,11.40
2022-12-03T13:01:17.952Z,11.42
2022-12-03T13:03:44.981Z,11.43
2022-12-03T13:06:16.204Z,11.44
2022-12-03T13:08:45.588Z,11.43
2022-12-03T13:11:38.841Z,11.42
2022-12-03T13:14:23.583Z,11.42
2022-12-03T13:16:52.460Z,11.42
2022-12-03T13:19:28.576Z,11.40
2022-12-03T13:21:58.043Z,11.42
2022-12-03T13:24:41.335Z,11.43
2022-12-03T13:27:17.517Z,11.39
2022-12-03T13:29:45.119Z,11.48
2022-12-03T13:32:19.707Z,11.59
2022-12-03T13:34:47.545Z,11.64
2022-12-03T13:37:18.805Z,11.63
2022-12-03T13:39:50.454Z,11.59
2022-12-03T13:42:46.098Z,11.58
2022-12-03T13:45:15.684Z,11.52
2022-12-03T13:48:00.743Z,11.43
2022-12-03T13:50:38.727Z,11.37
2022-12-03T13:53:11.352Z,11.37
2022-12-03T13:55:42.891Z,11.40
2022-12-03T13:58:09.784Z,11.33
2022-12-03T14:00:36.622Z,11.31
2022-12-03T14:03:03.713Z,11.27
2022-12-03T14:05:30.680Z,11.25
2022-12-03T14:08:02.365Z,11.31
2022-12-03T14:10:29.757Z,11.29
2022-12-03T14:12:57.161Z,11.30
2022-12-03T14:15:25.048Z,11.29
2022-12-03T14:17:52.010Z,11.32
2022-12-03T14:20:19.310Z,11.37
2022-12-03T14:22:46.200Z,11.37
2022-12-03T14:25:13.117Z,11.30
2022-12-03T14:27:39.963Z,11.28
2022-12-03T14:30:07.534Z,11.27
2022-12-03T14:32:34.246Z,11.26
2022-12-03T14:35:05.131Z,11.24
2022-12-03T14:37:35.347Z,11.17
2022-12-03T14:40:03.840Z,11.14
2022-12-03T14:42:30.914Z,11.16
2022-12-03T14:44:57.824Z,11.24
2022-12-03T14:47:24.698Z,11.18
2022-12-03T14:49:52.772Z,11.18
2022-12-03T14:52:20.561Z,11.10
2022-12-03T14:54:47.271Z,11.00
2022-12-03T14:57:15.563Z,10.95
2022-12-03T14:59:43.692Z,10.93
2022-12-03T15:02:11.869Z,10.87
2022-12-03T15:04:39.941Z,10.85
2022-12-03T15:07:07.108Z,10.88
2022-12-03T15:09:34.011Z,10.88
2022-12-03T15:12:02.753Z,10.87
2022-12-03T15:14:29.567Z,10.82
2022-12-03T15:16:56.497Z,10.81
2022-12-03T15:19:23.271Z,10.80
2022-12-03T15:21:50.125Z,10.83
2022-12-03T15:24:17.151Z,10.84
2022-12-03T15:26:48.740Z,10.79
2022-12-03T15:29:19.665Z,10.82
2022-12-03T15:31:46.530Z,10.80
2022-12-03T15:34:17.364Z,10.75
2022-12-03T15:36:48.336Z,10.74
2022-12-03T15:39:15.063Z,10.77
2022-12-03T15:41:41.926Z,10.76
2022-12-03T15:44:09.221Z,10.75
2022-12-03T15:46:36.528Z,10.80
2022-12-03T15:49:03.409Z,10.80
2022-12-03T15:51:30.334Z,10.78
2022-12-03T15:53:57.230Z,10.76
2022-12-03T15:56:24.162Z,10.75
2022-12-03T15:58:51.151Z,10.71
2022-12-03T16:01:18.470Z,10.74
2022-12-03T16:03:45.427Z,10.74
2022-12-03T16:06:12.779Z,10.60
2022-12-03T16:08:39.521Z,10.55
2022-12-03T16:11:06.485Z,10.52
2022-12-03T16:13:33.479Z,10.51
2022-12-03T16:16:00.531Z,10.47
2022-12-03T16:18:27.485Z,10.57
2022-12-03T16:20:54.545Z,10.57
2022-12-03T16:23:21.468Z,10.63
2022-12-03T16:25:48.562Z,10.68
2022-12-03T16:28:15.663Z,10.72
2022-12-03T16:30:42.854Z,10.65
2022-12-03T16:33:09.823Z,10.60
2022-12-03T16:35:38.291Z,10.62
2022-12-03T16:38:05.354Z,10.59
2022-12-03T16:40:32.270Z,10.62
2022-12-03T16:42:59.330Z,10.61
2022-12-03T16:45:29.256Z,10.60
2022-12-03T16:47:56.178Z,10.61
2022-12-03T16:50:29.555Z,10.64
2022-12-03T16:52:57.650Z,10.64
2022-12-03T16:55:24.784Z,10.61
2022-12-03T16:57:51.668Z,10.61
2022-12-03T17:00:21.736Z,10.59
2022-12-03T17:02:48.987Z,10.63
2022-12-03T17:05:15.915Z,10.61
2022-12-03T17:07:42.766Z,10.62
2022-12-03T17:10:10.347Z,10.59
2022-12-03T17:13:07.203Z,10.50
2022-12-03T17:15:25.425Z,10.46
2022-12-03T17:17:53.311Z,10.46
2022-12-03T17:20:20.212Z,10.39
2022-12-03T17:22:47.369Z,10.37
2022-12-03T17:25:15.562Z,10.38
2022-12-03T17:27:45.402Z,10.31
2022-12-03T17:30:13.514Z,10.28
2022-12-03T17:32:40.569Z,10.27
2022-12-03T17:35:08.323Z,10.21
2022-12-03T17:37:35.371Z,10.19
2022-12-03T17:40:02.748Z,10.20
2022-12-03T17:42:29.553Z,10.14
2022-12-03T17:44:56.461Z,10.12
2022-12-03T17:47:24.484Z,10.12
2022-12-03T17:49:51.647Z,10.16
2022-12-03T17:52:19.000Z,10.16
2022-12-03T17:55:10.019Z,10.19
2022-12-03T17:57:33.887Z,10.19
2022-12-03T18:00:01.521Z,10.13
2022-12-03T18:02:39.434Z,10.16
2022-12-03T18:05:06.579Z,10.19
2022-12-03T18:07:34.122Z,10.10
2022-12-03T18:10:01.239Z,10.03
2022-12-03T18:12:28.024Z,10.05
2022-12-03T18:14:54.872Z,10.07
2022-12-03T18:17:21.659Z,10.00
2022-12-03T18:19:48.515Z,9.93
2022-12-03T18:22:15.524Z,10.00
2022-12-03T18:24:45.022Z,10.01
2022-12-03T18:27:13.305Z,10.02
2022-12-03T18:29:40.146Z,9.89
2022-12-03T18:32:27.168Z,9.88
2022-12-03T18:34:55.599Z,9.90
2022-12-03T18:37:26.183Z,9.94
2022-12-03T18:39:53.734Z,9.85
2022-12-03T18:42:23.564Z,9.87
2022-12-03T18:44:53.783Z,9.80
2022-12-03T18:47:23.593Z,9.82
2022-12-03T18:49:53.958Z,9.85
2022-12-03T18:52:25.420Z,9.89
2022-12-03T18:54:56.501Z,9.92
2022-12-03T18:57:23.303Z,9.95
2022-12-03T18:59:50.072Z,9.93
2022-12-03T19:05:08.560Z,10.02
2022-12-03T19:07:35.569Z,10.05
2022-12-03T19:10:03.174Z,10.06
2022-12-03T19:12:31.194Z,9.95
2022-12-03T19:14:58.252Z,9.94
2022-12-03T19:17:27.192Z,9.93
2022-12-03T19:19:54.980Z,9.92
2022-12-03T19:22:24.596Z,9.93
2022-12-03T19:24:51.584Z,10.00
2022-12-03T19:27:19.039Z,10.03
2022-12-03T19:29:48.817Z,10.05
2022-12-03T19:32:15.891Z,10.03
2022-12-03T19:34:42.808Z,9.99
2022-12-03T19:37:09.801Z,9.83
2022-12-03T19:39:36.873Z,9.69
2022-12-03T19:42:03.849Z,9.63
2022-12-03T19:44:30.849Z,9.66
2022-12-03T19:46:57.664Z,9.68
2022-12-03T19:49:25.837Z,9.72
2022-12-03T19:51:53.012Z,9.81
2022-12-03T19:54:20.003Z,9.92
2022-12-03T19:56:46.779Z,9.95
2022-12-03T19:59:14.574Z,9.97
2022-12-03T20:01:43.147Z,9.99
2022-12-03T20:04:12.060Z,9.91
2022-12-03T20:06:39.625Z,9.82
2022-12-03T20:09:16.601Z,9.80
2022-12-03T20:11:44.654Z,9.86
2022-12-03T20:14:16.423Z,9.80
2022-12-03T20:16:44.655Z,9.77
2022-12-03T20:19:13.761Z,9.78
2022-12-03T20:21:41.622Z,9.86
2022-12-03T20:24:10.291Z,9.92
2022-12-03T20:26:37.133Z,9.90
2022-12-03T20:29:04.103Z,9.92
2022-12-03T20:31:32.064Z,9.95
2022-12-03T20:34:01.492Z,9.98
2022-12-03T20:36:29.925Z,10.00
2022-12-03T20:38:58.210Z,10.00
2022-12-03T20:41:25.459Z,9.93
2022-12-03T20:43:53.616Z,9.97
2022-12-03T20:46:29.376Z,9.95
2022-12-03T20:48:56.971Z,9.87
2022-12-03T20:51:26.000Z,9.82
2022-12-03T20:53:52.864Z,9.88
2022-12-03T20:56:26.916Z,9.85
2022-12-03T20:58:54.463Z,9.81
2022-12-03T21:01:24.403Z,9.91
2022-12-03T21:03:53.191Z,9.91
2022-12-03T21:06:21.341Z,9.88
2022-12-03T21:08:48.860Z,9.95
2022-12-03T21:11:21.741Z,9.95
2022-12-03T21:13:48.754Z,9.92
2022-12-03T21:16:39.500Z,9.99
2022-12-03T21:19:08.348Z,9.95
2022-12-03T21:21:35.632Z,9.93
2022-12-03T21:24:02.594Z,9.81
2022-12-03T21:26:29.531Z,9.79
2022-12-03T21:28:56.474Z,9.81
2022-12-03T21:31:25.893Z,9.81
2022-12-03T21:33:54.312Z,9.90
2022-12-03T21:36:21.411Z,9.92
2022-12-03T21:38:48.674Z,9.94
2022-12-03T21:41:15.690Z,9.98
2022-12-03T21:43:43.510Z,9.99
2022-12-03T21:47:08.407Z,10.06
2022-12-03T21:49:01.788Z,10.11
2022-12-03T21:51:28.620Z,10.07
2022-12-03T21:53:55.646Z,10.05
2022-12-03T21:56:22.503Z,10.05
2022-12-03T21:58:49.586Z,9.98
2022-12-03T22:01:24.340Z,9.94
2022-12-03T22:03:51.724Z,9.87
2022-12-03T22:06:19.300Z,9.91
2022-12-03T22:08:46.911Z,9.93
2022-12-03T22:11:16.996Z,9.97
2022-12-03T22:13:44.553Z,10.01
2022-12-03T22:16:14.014Z,9.96
2022-12-03T22:18:41.840Z,9.89
2022-12-03T22:21:11.905Z,9.79
2022-12-03T22:23:39.082Z,9.78
2022-12-03T22:26:09.135Z,9.79
2022-12-03T22:28:36.026Z,9.76
2022-12-03T22:31:07.424Z,9.82
2022-12-03T22:33:35.107Z,9.83
2022-12-03T22:36:05.141Z,9.97
2022-12-03T22:38:32.589Z,10.01
2022-12-03T22:40:59.852Z,10.14
2022-12-03T22:43:26.764Z,10.22
2022-12-03T22:45:55.470Z,10.30
2022-12-03T22:48:23.653Z,10.42
2022-12-03T22:50:51.792Z,10.50
2022-12-03T22:53:19.685Z,10.54
2022-12-03T22:55:58.721Z,10.56
2022-12-03T22:58:26.853Z,10.59
2022-12-03T23:00:59.776Z,10.49
2022-12-03T23:03:29.767Z,10.42
2022-12-03T23:05:56.967Z,10.30
2022-12-03T23:08:23.962Z,10.30
2022-12-03T23:10:52.826Z,10.32
2022-12-03T23:13:20.923Z,10.33
2022-12-03T23:15:50.140Z,10.30
2022-12-03T23:18:18.194Z,10.31
2022-12-03T23:20:47.148Z,10.20
2022-12-03T23:23:15.083Z,10.07
2022-12-03T23:25:42.328Z,10.05
2022-12-03T23:28:10.213Z,10.12
2022-12-03T23:30:39.434Z,10.16
2022-12-03T23:33:06.766Z,10.13
2022-12-03T23:35:34.093Z,10.17
2022-12-03T23:38:00.881Z,10.21
2022-12-03T23:40:27.769Z,10.23
2022-12-03T23:42:55.126Z,10.20
2022-12-03T23:45:21.955Z,10.22
2022-12-03T23:47:50.459Z,10.21
2022-12-03T23:50:20.528Z,10.23
2022-12-03T23:52:47.231Z,10.18
2022-12-03T23:55:14.044Z,10.20
2022-12-03T23:57:41.119Z,10.22
